Time;durP1;ratioP1;P1;durP2;ratioP2;P2;SDS_P1;SDS_P2;PMS_P1;PMS_P2;Temp;Humidity;BMP_temperature;BMP_pressure;BME280_temperature;BME280_humidity;BME280_pressure;Samples;Min_cycle;Max_cycle;Signal;HPM_P1;HPM_P2
2023/07/31 00:01:01;;;;;;;29.05;19.05;;;;;;;15.79;100.00;100928.53;5050039;28;20038;-62
2023/07/31 00:03:26;;;;;;;28.42;18.98;;;;;;;15.83;100.00;100928.66;5034243;28;20021;-62
2023/07/31 00:05:51;;;;;;;28.00;17.85;;;;;;;15.80;100.00;100924.59;5049302;28;20053;-62
2023/07/31 00:08:16;;;;;;;29.15;18.33;;;;;;;15.77;100.00;100919.69;5039487;28;20030;-62
2023/07/31 00:10:42;;;;;;;27.38;17.23;;;;;;;15.79;100.00;100930.50;5043959;28;20033;-62
2023/07/31 00:13:07;;;;;;;31.90;17.50;;;;;;;15.80;100.00;100926.53;5054166;28;20107;-63
2023/07/31 00:15:32;;;;;;;27.23;17.92;;;;;;;15.79;100.00;100927.69;5046812;28;20030;-62
2023/07/31 00:17:58;;;;;;;27.35;18.33;;;;;;;15.81;100.00;100923.44;5047710;28;20044;-63
2023/07/31 00:20:24;;;;;;;28.50;18.58;;;;;;;15.78;100.00;100926.06;5044408;28;20037;-62
2023/07/31 00:22:49;;;;;;;29.20;18.00;;;;;;;15.74;100.00;100914.78;5039870;28;20055;-62
2023/07/31 00:25:14;;;;;;;26.70;18.27;;;;;;;15.79;100.00;100916.53;5039500;28;20382;-63
2023/07/31 00:27:44;;;;;;;28.42;16.88;;;;;;;15.79;100.00;100910.97;5039348;28;20495;-63
2023/07/31 00:30:10;;;;;;;28.60;17.98;;;;;;;15.74;100.00;100926.75;5040473;28;20048;-63
2023/07/31 00:32:35;;;;;;;26.40;17.05;;;;;;;15.76;100.00;100926.41;5035302;28;20128;-62
2023/07/31 00:35:01;;;;;;;28.83;16.92;;;;;;;15.79;100.00;100910.97;5044459;28;20108;-63
2023/07/31 00:37:27;;;;;;;27.02;17.27;;;;;;;15.78;100.00;100912.94;5040404;28;20033;-63
2023/07/31 00:39:52;;;;;;;27.45;17.27;;;;;;;15.79;100.00;100903.44;5044196;28;20025;-63
2023/07/31 00:42:17;;;;;;;27.52;16.77;;;;;;;15.75;100.00;100908.03;5045140;28;20034;-63
2023/07/31 00:44:42;;;;;;;25.35;16.70;;;;;;;15.73;100.00;100907.56;5034847;28;20489;-63
2023/07/31 00:47:08;;;;;;;28.08;16.42;;;;;;;15.74;100.00;100915.59;5042170;28;20033;-62
2023/07/31 00:49:33;;;;;;;26.38;16.95;;;;;;;15.73;100.00;100908.38;5052965;28;20066;-63
2023/07/31 00:51:59;;;;;;;24.48;15.95;;;;;;;15.74;100.00;100911.97;5047480;28;20127;-63
2023/07/31 00:54:24;;;;;;;27.65;16.60;;;;;;;15.74;100.00;100904.44;5039136;28;20032;-63
2023/07/31 00:56:52;;;;;;;28.30;16.98;;;;;;;15.72;100.00;100901.19;5048170;28;20056;-63
2023/07/31 00:59:18;;;;;;;26.05;16.52;;;;;;;15.72;100.00;100900.38;5034202;28;20044;-62
2023/07/31 01:01:45;;;;;;;26.42;16.73;;;;;;;15.69;100.00;100907.41;5041496;28;20029;-62
2023/07/31 01:04:11;;;;;;;27.02;16.10;;;;;;;15.66;100.00;100901.72;5038531;28;20036;-62
2023/07/31 01:06:49;;;;;;;24.35;15.38;;;;;;;15.72;100.00;100903.97;5051005;28;20110;-63
2023/07/31 01:09:34;;;;;;;26.42;16.27;;;;;;;15.69;100.00;100884.31;5052796;28;20103;-63
2023/07/31 01:12:04;;;;;;;25.10;16.20;;;;;;;15.69;100.00;100895.47;5048155;28;20106;-63
2023/07/31 01:14:29;;;;;;;29.35;16.00;;;;;;;15.69;100.00;100896.25;5052465;28;20029;-62
2023/07/31 01:16:55;;;;;;;25.45;15.63;;;;;;;15.70;100.00;100885.94;5039483;28;20033;-62
2023/07/31 01:19:29;;;;;;;24.80;15.65;;;;;;;15.67;100.00;100879.09;5042714;28;20113;-63
2023/07/31 01:22:20;;;;;;;26.05;16.30;;;;;;;15.69;100.00;100881.53;5040023;28;20048;-63
2023/07/31 01:24:48;;;;;;;27.33;15.27;;;;;;;15.72;100.00;100890.03;5032849;28;20098;-63
2023/07/31 01:27:17;;;;;;;26.33;15.55;;;;;;;15.67;100.00;100876.28;5036277;28;20045;-62
2023/07/31 01:29:56;;;;;;;26.65;15.55;;;;;;;15.63;100.00;100894.03;5042959;28;20139;-62
2023/07/31 01:32:22;;;;;;;27.77;16.08;;;;;;;15.64;100.00;100882.53;5033518;28;20036;-63
2023/07/31 01:34:48;;;;;;;26.05;15.63;;;;;;;15.65;100.00;100881.38;5040624;28;20025;-63
2023/07/31 01:37:14;;;;;;;24.38;14.48;;;;;;;15.63;100.00;100892.06;5038660;28;20040;-62
2023/07/31 01:39:39;;;;;;;24.42;14.77;;;;;;;15.63;100.00;100894.84;5042770;28;20021;-62
2023/07/31 01:42:04;;;;;;;25.38;14.38;;;;;;;15.67;100.00;100884.66;5044978;28;20028;-63
2023/07/31 01:44:30;;;;;;;24.45;14.68;;;;;;;15.66;100.00;100890.56;5052430;28;20428;-63
2023/07/31 01:46:56;;;;;;;26.73;15.45;;;;;;;15.70;100.00;100886.75;5041164;28;20108;-62
2023/07/31 01:49:21;;;;;;;26.60;14.75;;;;;;;15.64;100.00;100876.13;5034682;28;20028;-63
2023/07/31 01:51:46;;;;;;;25.77;15.35;;;;;;;15.65;100.00;100873.03;5037290;28;20029;-63
2023/07/31 01:54:12;;;;;;;24.10;14.55;;;;;;;15.60;100.00;100870.41;5032308;28;20041;-62
2023/07/31 01:56:37;;;;;;;24.08;15.77;;;;;;;15.63;100.00;100877.31;5040777;28;20417;-63
2023/07/31 01:59:02;;;;;;;25.90;14.18;;;;;;;15.60;100.00;100874.03;5037071;28;20028;-62
2023/07/31 02:01:27;;;;;;;24.80;13.98;;;;;;;15.62;100.00;100865.31;5046226;28;20080;-62
2023/07/31 02:03:54;;;;;;;25.88;14.18;;;;;;;15.59;100.00;100866.00;5044505;28;20099;-62
2023/07/31 02:06:19;;;;;;;25.60;14.82;;;;;;;15.63;100.00;100871.75;5042902;28;20096;-62
2023/07/31 02:08:44;;;;;;;26.90;14.00;;;;;;;15.60;100.00;100874.03;5043267;28;20452;-62
2023/07/31 02:11:10;;;;;;;25.25;14.57;;;;;;;15.62;100.00;100865.31;5042274;28;20104;-62
2023/07/31 02:13:35;;;;;;;22.67;14.70;;;;;;;15.61;100.00;100866.47;5036904;28;20021;-62
2023/07/31 02:16:01;;;;;;;25.88;14.95;;;;;;;15.60;100.00;100859.28;5032500;28;20021;-62
2023/07/31 02:18:26;;;;;;;23.35;14.38;;;;;;;15.57;100.00;100862.75;5032735;28;20392;-62
2023/07/31 02:20:52;;;;;;;24.92;15.35;;;;;;;15.58;100.00;100859.63;5037369;28;20040;-62
2023/07/31 02:23:20;;;;;;;26.05;16.20;;;;;;;15.54;100.00;100841.13;5050439;28;20033;-63
2023/07/31 02:25:46;;;;;;;26.20;15.10;;;;;;;15.54;100.00;100855.06;5041268;28;20454;-63
2023/07/31 02:28:11;;;;;;;24.95;15.02;;;;;;;15.49;100.00;100849.69;5031719;28;20146;-62
2023/07/31 02:30:37;;;;;;;27.05;15.25;;;;;;;15.51;100.00;100844.56;5042351;28;20048;-63
2023/07/31 02:33:03;;;;;;;24.65;15.02;;;;;;;15.49;100.00;100841.34;5031726;28;20041;-62
2023/07/31 02:35:28;;;;;;;25.13;16.25;;;;;;;15.48;100.00;100842.50;5031530;28;20032;-62
2023/07/31 02:37:54;;;;;;;26.10;14.93;;;;;;;15.46;100.00;100837.25;5036367;28;20041;-63
2023/07/31 02:40:19;;;;;;;25.30;14.60;;;;;;;15.43;100.00;100838.75;5050978;28;20040;-63
2023/07/31 02:42:45;;;;;;;26.98;15.25;;;;;;;15.48;100.00;100828.56;5034260;28;20036;-63
2023/07/31 02:45:10;;;;;;;25.80;14.23;;;;;;;15.45;100.00;100832.81;5040365;28;20033;-63
2023/07/31 02:47:35;;;;;;;24.77;15.43;;;;;;;15.44;100.00;100834.78;5046625;28;20032;-63
2023/07/31 02:50:02;;;;;;;25.92;15.80;;;;;;;15.46;100.00;100825.28;5031911;28;20389;-63
2023/07/31 02:52:28;;;;;;;28.23;15.23;;;;;;;15.45;100.00;100818.88;5031194;28;20025;-63
2023/07/31 02:54:53;;;;;;;26.15;15.50;;;;;;;15.45;100.00;100830.03;5033034;28;20408;-64
2023/07/31 02:57:19;;;;;;;25.73;14.70;;;;;;;15.46;100.00;100823.28;5032974;28;20034;-63
2023/07/31 02:59:44;;;;;;;24.90;14.95;;;;;;;15.44;100.00;100828.41;5038064;28;20036;-63
2023/07/31 03:02:10;;;;;;;24.92;15.63;;;;;;;15.44;100.00;100825.63;5040215;28;20412;-63
2023/07/31 03:04:35;;;;;;;25.77;14.35;;;;;;;15.41;100.00;100824.31;5039980;28;20119;-63
2023/07/31 03:07:01;;;;;;;23.35;14.63;;;;;;;15.41;100.00;100818.75;5042889;28;20108;-63
2023/07/31 03:09:26;;;;;;;25.45;14.63;;;;;;;15.39;100.00;100815.50;5039513;28;20053;-63
2023/07/31 03:11:51;;;;;;;25.52;15.40;;;;;;;15.40;100.00;100817.09;5038581;28;20043;-63
2023/07/31 03:14:17;;;;;;;26.70;15.80;;;;;;;15.38;100.00;100821.41;5037808;28;20024;-63
2023/07/31 03:16:42;;;;;;;28.80;15.50;;;;;;;15.38;100.00;100822.22;5042116;28;20512;-63
2023/07/31 03:19:07;;;;;;;24.20;14.60;;;;;;;15.35;100.00;100814.53;5030953;28;20030;-63
2023/07/31 03:21:33;;;;;;;24.10;15.10;;;;;;;15.43;100.00;100821.22;5031102;28;20542;-63
2023/07/31 03:23:58;;;;;;;25.85;15.27;;;;;;;15.32;100.00;100826.34;5030928;28;20033;-62
2023/07/31 03:26:23;;;;;;;25.08;14.63;;;;;;;15.32;100.00;100814.41;5043097;28;20025;-63
2023/07/31 03:28:49;;;;;;;23.83;14.32;;;;;;;15.32;100.00;100823.56;5039825;28;20025;-63
2023/07/31 03:31:14;;;;;;;26.70;14.57;;;;;;;15.32;100.00;100823.56;5050704;28;20111;-63
2023/07/31 03:33:40;;;;;;;25.48;14.95;;;;;;;15.34;100.00;100823.25;5038486;28;20080;-63
2023/07/31 03:36:05;;;;;;;26.45;14.80;;;;;;;15.31;100.00;100809.97;5030627;28;20607;-62
2023/07/31 03:38:31;;;;;;;22.45;14.30;;;;;;;15.31;100.00;100810.78;5030400;28;20128;-62
2023/07/31 03:40:58;;;;;;;24.75;14.95;;;;;;;15.29;100.00;100804.75;5036347;28;20182;-62
2023/07/31 03:43:24;;;;;;;24.52;14.50;;;;;;;15.27;100.00;100791.13;5030420;28;20112;-63
2023/07/31 03:45:50;;;;;;;24.23;14.23;;;;;;;15.26;100.00;100795.06;5035404;28;20362;-62
2023/07/31 03:48:16;;;;;;;24.33;13.77;;;;;;;15.23;100.00;100795.78;5046569;28;20178;-62
2023/07/31 03:50:41;;;;;;;23.38;14.55;;;;;;;15.22;100.00;100784.94;5030711;28;20067;-62
2023/07/31 03:53:06;;;;;;;25.27;14.05;;;;;;;15.23;100.00;100783.81;5041283;28;20142;-62
2023/07/31 03:55:32;;;;;;;26.17;14.95;;;;;;;15.24;100.00;100780.69;5049387;28;20025;-62
2023/07/31 03:57:57;;;;;;;26.58;15.23;;;;;;;15.24;100.00;100779.84;5048831;28;20083;-63
2023/07/31 04:00:22;;;;;;;26.58;15.23;;;;;;;15.25;100.00;100778.72;5033614;28;20060;-64
2023/07/31 04:02:48;;;;;;;25.60;15.70;;;;;;;15.25;100.00;100779.53;5033589;28;20022;-63
2023/07/31 04:05:13;;;;;;;24.67;15.07;;;;;;;15.26;100.00;100766.41;5050318;28;20358;-63
2023/07/31 04:07:38;;;;;;;25.85;14.88;;;;;;;15.33;100.00;100774.22;5038129;28;20042;-63
2023/07/31 04:10:04;;;;;;;25.55;15.32;;;;;;;15.31;100.00;100768.97;5030700;28;20037;-63
2023/07/31 04:12:29;;;;;;;24.15;14.30;;;;;;;15.32;100.00;100769.81;5038698;28;20040;-63
2023/07/31 04:14:55;;;;;;;24.75;15.25;;;;;;;15.35;100.00;100764.38;5037023;28;20075;-63
2023/07/31 04:17:20;;;;;;;22.88;14.70;;;;;;;15.36;100.00;100765.16;5030209;28;20044;-62
2023/07/31 04:19:45;;;;;;;25.30;15.05;;;;;;;15.36;100.00;100762.38;5036496;28;20440;-63
2023/07/31 04:22:11;;;;;;;23.58;14.80;;;;;;;15.41;100.00;100763.00;5049166;28;20021;-63
2023/07/31 04:24:36;;;;;;;24.35;14.55;;;;;;;15.41;100.00;100760.19;5036312;28;20025;-64
2023/07/31 04:27:01;;;;;;;25.85;14.45;;;;;;;15.43;100.00;100754.31;5034777;28;20029;-63
2023/07/31 04:29:27;;;;;;;25.30;15.90;;;;;;;15.44;100.00;100753.97;5038681;28;20056;-63
2023/07/31 04:31:52;;;;;;;24.42;14.40;;;;;;;15.47;100.00;100762.81;5034387;28;20032;-64
2023/07/31 04:34:17;;;;;;;25.83;14.55;;;;;;;15.48;100.00;100762.44;5033506;28;20057;-63
2023/07/31 04:36:42;;;;;;;24.98;14.27;;;;;;;15.46;100.00;100758.38;5043607;28;20473;-63
2023/07/31 04:39:08;;;;;;;24.38;14.73;;;;;;;15.49;100.00;100761.28;5050130;28;20538;-63
2023/07/31 04:41:33;;;;;;;23.20;14.52;;;;;;;15.48;100.00;100756.06;5041893;28;20174;-63
2023/07/31 04:43:59;;;;;;;24.27;14.77;;;;;;;15.53;100.00;100748.31;5050621;28;20039;-63
2023/07/31 04:46:24;;;;;;;24.35;14.00;;;;;;;15.53;100.00;100748.31;5045753;28;20111;-63
2023/07/31 04:48:49;;;;;;;24.27;13.50;;;;;;;15.53;100.00;100742.75;5036036;28;20064;-64
2023/07/31 04:51:15;;;;;;;24.88;14.20;;;;;;;15.55;100.00;100742.38;5053499;28;20029;-63
2023/07/31 04:53:40;;;;;;;22.92;13.75;;;;;;;15.55;100.00;100734.03;5051790;28;20108;-63
2023/07/31 04:56:05;;;;;;;23.65;13.88;;;;;;;15.56;100.00;100730.06;5044154;28;20064;-63
2023/07/31 04:58:31;;;;;;;25.73;14.48;;;;;;;15.57;100.00;100735.31;5048293;28;20083;-64
2023/07/31 05:00:56;;;;;;;27.45;14.90;;;;;;;15.54;100.00;100738.75;5041374;28;20124;-62
2023/07/31 05:03:21;;;;;;;24.33;13.75;;;;;;;15.56;100.00;100730.06;5048478;28;20501;-63
2023/07/31 05:05:47;;;;;;;23.58;13.95;;;;;;;15.55;100.00;100720.88;5034825;28;20060;-64
2023/07/31 05:08:12;;;;;;;23.13;14.00;;;;;;;15.60;100.00;100720.69;5033293;28;20064;-63
2023/07/31 05:10:38;;;;;;;23.65;13.88;;;;;;;15.58;100.00;100722.19;5033256;28;20479;-63
2023/07/31 05:13:03;;;;;;;24.10;13.93;;;;;;;15.60;100.00;100717.06;5033127;28;20037;-63
2023/07/31 05:15:28;;;;;;;27.08;14.45;;;;;;;15.62;100.00;100714.75;5039683;28;20094;-64
2023/07/31 05:17:54;;;;;;;25.13;14.63;;;;;;;15.65;100.00;100716.88;5039019;28;20053;-63
2023/07/31 05:20:19;;;;;;;24.38;14.65;;;;;;;15.69;100.00;100709.41;5039927;28;20025;-63
2023/07/31 05:22:45;;;;;;;23.83;14.85;;;;;;;15.70;100.00;100715.84;5043480;28;20029;-63
2023/07/31 05:25:10;;;;;;;27.13;15.48;;;;;;;15.70;100.00;100705.47;5041474;28;20072;-64
2023/07/31 05:27:35;;;;;;;22.13;14.25;;;;;;;15.69;100.00;100705.81;5039446;28;20045;-63
2023/07/31 05:30:01;;;;;;;24.83;14.85;;;;;;;15.74;100.00;100711.19;5046948;28;20045;-64
2023/07/31 05:32:26;;;;;;;25.65;14.93;;;;;;;15.72;100.00;100713.53;5034670;28;20366;-64
2023/07/31 05:34:52;;;;;;;26.88;15.10;;;;;;;15.70;100.00;100713.03;5048400;28;20025;-63
2023/07/31 05:37:18;;;;;;;24.65;14.10;;;;;;;15.69;100.00;100705.81;5044844;28;20029;-63
2023/07/31 05:39:43;;;;;;;22.77;14.63;;;;;;;15.67;100.00;100706.19;5033674;28;20025;-63
2023/07/31 05:42:08;;;;;;;26.40;15.15;;;;;;;15.65;100.00;100702.09;5046737;28;20060;-63
2023/07/31 05:44:34;;;;;;;22.40;14.00;;;;;;;15.64;100.00;100715.22;5039932;28;20037;-63
2023/07/31 05:46:59;;;;;;;22.95;14.35;;;;;;;15.64;100.00;100703.25;5050337;28;20032;-63
2023/07/31 05:49:24;;;;;;;24.90;14.65;;;;;;;15.60;100.00;100703.94;5039070;28;20132;-63
2023/07/31 05:51:50;;;;;;;24.25;13.95;;;;;;;15.62;100.00;100700.00;5032570;28;20029;-63
2023/07/31 05:54:15;;;;;;;22.05;14.48;;;;;;;15.60;100.00;100690.00;5037753;28;20030;-62
2023/07/31 05:56:40;;;;;;;24.60;14.43;;;;;;;15.64;100.00;100686.50;5052269;28;20033;-63
2023/07/31 05:59:06;;;;;;;23.60;13.85;;;;;;;15.65;100.00;100675.03;5040901;28;20033;-62
2023/07/31 06:01:31;;;;;;;23.08;13.50;;;;;;;15.62;100.00;100681.28;5044540;28;20422;-62
2023/07/31 06:03:57;;;;;;;20.88;13.48;;;;;;;15.58;100.00;100678.38;5046167;28;20063;-62
2023/07/31 06:06:22;;;;;;;20.52;13.40;;;;;;;15.59;100.00;100676.41;5032193;28;20034;-61
2023/07/31 06:08:47;;;;;;;19.67;12.95;;;;;;;15.53;100.00;100678.63;5039400;28;20036;-60
2023/07/31 06:11:13;;;;;;;22.35;12.70;;;;;;;15.52;100.00;100678.94;5032548;28;20037;-62
2023/07/31 06:13:38;;;;;;;19.42;12.70;;;;;;;15.55;100.00;100676.28;5051803;28;20393;-62
2023/07/31 06:16:06;;;;;;;19.33;12.63;;;;;;;15.54;100.00;100676.63;5043375;28;20159;-63
2023/07/31 06:18:32;;;;;;;20.70;13.00;;;;;;;15.54;100.00;100677.44;5040343;28;20048;-62
2023/07/31 06:20:58;;;;;;;19.40;12.60;;;;;;;15.56;100.00;100665.94;5032296;28;20029;-62
2023/07/31 06:23:25;;;;;;;20.98;13.20;;;;;;;15.57;100.00;100670.38;5032014;28;20040;-63
2023/07/31 06:25:50;;;;;;;19.65;12.85;;;;;;;15.60;100.00;100678.03;5034770;28;20382;-62
2023/07/31 06:28:15;;;;;;;20.17;12.77;;;;;;;15.62;100.00;100674.91;5036073;28;20033;-62
2023/07/31 06:30:41;;;;;;;18.60;12.60;;;;;;;15.62;100.00;100663.75;5042523;28;20124;-63
2023/07/31 06:33:06;;;;;;;19.23;12.23;;;;;;;15.65;100.00;100672.25;5037968;28;20037;-63
2023/07/31 06:35:31;;;;;;;18.23;12.57;;;;;;;15.66;100.00;100673.06;5041832;28;20035;-61
2023/07/31 06:37:57;;;;;;;20.20;12.70;;;;;;;15.68;100.00;100674.31;5045039;28;20451;-62
2023/07/31 06:40:22;;;;;;;19.67;12.70;;;;;;;15.68;100.00;100667.94;5030412;28;20071;-62
2023/07/31 06:42:48;;;;;;;18.77;12.30;;;;;;;15.66;100.00;100657.16;5034768;28;20494;-62
2023/07/31 06:45:13;;;;;;;20.15;12.05;;;;;;;15.69;100.00;100656.44;5046897;28;20466;-62
2023/07/31 06:47:38;;;;;;;18.88;11.85;;;;;;;15.71;100.00;100647.75;5037165;28;20547;-62
2023/07/31 06:50:05;;;;;;;18.15;12.57;;;;;;;15.74;100.00;100647.03;5049595;28;20066;-62
2023/07/31 06:52:30;;;;;;;19.02;12.57;;;;;;;15.73;100.00;100640.66;5051108;28;20558;-62
2023/07/31 06:55:25;;;;;;;18.92;12.07;;;;;;;15.76;100.00;100641.94;5050967;28;20127;-62
2023/07/31 06:57:53;;;;;;;20.35;12.63;;;;;;;15.72;100.00;100639.03;5041933;28;20048;-62
2023/07/31 07:00:20;;;;;;;19.38;12.98;;;;;;;15.71;100.00;100639.38;5051056;28;20025;-62
2023/07/31 07:02:47;;;;;;;19.17;12.95;;;;;;;15.72;100.00;100636.22;5051103;28;20615;-62
2023/07/31 07:05:13;;;;;;;19.20;12.65;;;;;;;15.71;100.00;100642.97;5051122;28;20021;-62
2023/07/31 07:07:38;;;;;;;18.52;12.45;;;;;;;15.74;100.00;100636.72;5048786;28;20029;-62
2023/07/31 07:10:05;;;;;;;19.17;13.07;;;;;;;15.77;100.00;100639.97;5050005;28;20094;-62
2023/07/31 07:12:31;;;;;;;18.55;12.90;;;;;;;15.79;100.00;100629.25;5049970;28;20075;-62
2023/07/31 07:14:59;;;;;;;19.17;12.30;;;;;;;15.77;100.00;100628.81;5048007;28;20411;-62
2023/07/31 07:17:26;;;;;;;19.58;12.85;;;;;;;15.82;100.00;100625.78;5049137;28;20025;-62
2023/07/31 07:19:51;;;;;;;18.55;12.38;;;;;;;15.84;100.00;100618.72;5045453;28;20413;-61
2023/07/31 07:22:17;;;;;;;19.08;12.98;;;;;;;15.93;100.00;100623.38;5049944;28;20136;-61
2023/07/31 07:24:42;;;;;;;21.42;13.50;;;;;;;16.00;100.00;100632.00;5050718;28;20346;-62
2023/07/31 07:27:08;;;;;;;19.17;12.90;;;;;;;16.06;100.00;100623.03;5050361;28;20040;-62
2023/07/31 07:29:38;;;;;;;19.23;12.77;;;;;;;16.13;100.00;100622.44;5050408;28;20053;-62
2023/07/31 07:32:03;;;;;;;17.80;11.90;;;;;;;16.15;100.00;100622.91;5050610;28;20393;-62
2023/07/31 07:34:29;;;;;;;18.02;12.07;;;;;;;16.16;100.00;100621.75;5050852;28;20035;-62
2023/07/31 07:36:55;;;;;;;19.08;12.07;;;;;;;16.18;100.00;100624.19;5050687;28;20517;-62
2023/07/31 07:39:21;;;;;;;17.90;12.07;;;;;;;16.17;100.00;100623.38;5049883;28;20036;-62
2023/07/31 07:41:47;;;;;;;18.45;11.70;;;;;;;16.16;100.00;100630.13;5050049;28;20039;-62
2023/07/31 07:44:13;;;;;;;18.30;11.88;;;;;;;16.17;100.00;100631.75;5049931;28;20033;-62
2023/07/31 07:46:38;;;;;;;18.05;12.07;;;;;;;16.15;100.00;100625.69;5049574;28;20033;-62
2023/07/31 07:49:04;;;;;;;18.63;12.27;;;;;;;16.15;100.00;100616.53;5049417;28;20028;-62
2023/07/31 07:51:31;;;;;;;19.30;12.63;;;;;;;16.14;100.00;100623.28;5049872;28;20025;-62
2023/07/31 07:53:57;;;;;;;19.20;12.68;;;;;;;16.13;100.00;100628.03;5050573;28;20024;-62
2023/07/31 07:56:23;;;;;;;19.35;12.90;;;;;;;16.09;100.00;100626.28;5050694;28;20021;-62
2023/07/31 07:58:50;;;;;;;18.88;12.63;;;;;;;16.05;100.00;100618.63;5052367;28;20032;-62
2023/07/31 08:01:15;;;;;;;19.27;12.45;;;;;;;16.03;100.00;100620.13;5054508;28;20112;-62
2023/07/31 08:03:40;;;;;;;19.30;12.95;;;;;;;16.04;100.00;100622.56;5054486;28;20116;-62
2023/07/31 08:06:06;;;;;;;20.17;13.25;;;;;;;16.06;100.00;100611.84;5054364;28;20469;-62
2023/07/31 08:08:31;;;;;;;19.67;13.18;;;;;;;16.12;100.00;100614.44;5054606;28;20060;-62
2023/07/31 08:10:56;;;;;;;19.55;13.25;;;;;;;16.17;100.00;100619.75;5054358;28;20439;-62
2023/07/31 08:13:22;;;;;;;20.15;13.40;;;;;;;16.18;100.00;100608.28;5054418;28;20453;-62
2023/07/31 08:15:47;;;;;;;20.33;12.82;;;;;;;16.20;100.00;100613.50;5054285;28;20021;-62
2023/07/31 08:18:12;;;;;;;20.17;13.40;;;;;;;16.22;100.00;100614.75;5054229;28;20524;-62
2023/07/31 08:20:38;;;;;;;19.65;14.18;;;;;;;16.29;100.00;100616.97;5054340;28;20428;-62
2023/07/31 08:23:04;;;;;;;21.38;14.15;;;;;;;16.29;100.00;100610.59;5054462;28;20543;-62
2023/07/31 08:25:29;;;;;;;20.42;13.70;;;;;;;16.33;100.00;100605.91;5054217;28;20027;-62
2023/07/31 08:27:55;;;;;;;20.63;13.85;;;;;;;16.40;100.00;100605.31;5054342;28;20441;-62
2023/07/31 08:30:21;;;;;;;19.77;13.70;;;;;;;16.41;100.00;100606.97;5054159;28;20124;-62
2023/07/31 08:32:46;;;;;;;20.98;14.38;;;;;;;16.41;100.00;100612.53;5054104;28;20456;-62
2023/07/31 08:35:12;;;;;;;19.45;13.23;;;;;;;16.43;100.00;100610.22;5054036;28;20025;-62
2023/07/31 08:37:38;;;;;;;20.38;13.93;;;;;;;16.47;100.00;100608.31;5054104;28;20037;-62
2023/07/31 08:40:04;;;;;;;20.00;13.50;;;;;;;16.45;100.00;100605.91;5054114;28;20485;-62
2023/07/31 08:42:30;;;;;;;18.77;13.30;;;;;;;16.49;100.00;100609.59;5054085;28;20035;-62
2023/07/31 08:44:56;;;;;;;20.10;14.07;;;;;;;16.49;100.00;100606.81;5053813;28;20032;-62
2023/07/31 08:47:22;;;;;;;19.80;13.60;;;;;;;16.48;100.00;100616.34;5054489;28;20028;-62
2023/07/31 08:49:48;;;;;;;20.10;14.13;;;;;;;16.49;100.00;100606.00;5054075;28;20128;-62
2023/07/31 08:52:14;;;;;;;20.58;13.93;;;;;;;16.47;100.00;100611.94;5053958;28;20378;-63
2023/07/31 08:54:40;;;;;;;20.17;14.43;;;;;;;16.48;100.00;100607.97;5054228;28;20036;-63
2023/07/31 08:57:07;;;;;;;20.83;14.13;;;;;;;16.49;100.00;100608.78;5054204;28;20086;-63
2023/07/31 08:59:34;;;;;;;21.08;14.07;;;;;;;16.50;100.00;100604.84;5053464;28;20112;-63
2023/07/31 09:02:05;;;;;;;20.25;14.30;;;;;;;16.45;100.00;100602.28;5053496;28;20029;-60
2023/07/31 09:04:31;;;;;;;21.85;14.27;;;;;;;16.49;100.00;100606.81;5053311;28;20025;-61
2023/07/31 09:07:00;;;;;;;23.00;14.38;;;;;;;16.46;100.00;100610.31;5053546;28;20481;-61
2023/07/31 09:09:26;;;;;;;22.02;14.38;;;;;;;16.44;100.00;100603.44;5052919;28;20043;-61
2023/07/31 09:11:52;;;;;;;20.00;14.18;;;;;;;16.41;100.00;100606.97;5053168;28;20029;-64
2023/07/31 09:14:19;;;;;;;21.85;14.63;;;;;;;16.42;100.00;100603.00;5053351;28;20082;-61
2023/07/31 09:16:59;;;;;;;23.40;15.32;;;;;;;16.49;100.00;100604.00;5052969;28;20021;-61
2023/07/31 09:19:27;;;;;;;21.85;14.55;;;;;;;16.45;100.00;100608.69;5052973;28;20043;-62
2023/07/31 09:21:52;;;;;;;22.50;14.98;;;;;;;16.47;100.00;100605.53;5053135;28;20029;-62
2023/07/31 09:24:31;;;;;;;21.52;15.20;;;;;;;16.53;100.00;100590.97;5053104;28;20525;-62
2023/07/31 09:27:00;;;;;;;22.08;15.05;;;;;;;16.58;100.00;100603.09;5053338;28;20033;-62
2023/07/31 09:29:27;;;;;;;22.13;15.75;;;;;;;16.63;100.00;100594.44;5052799;28;20049;-62
2023/07/31 09:31:54;;;;;;;24.48;15.70;;;;;;;16.67;100.00;100596.19;5052780;28;20064;-62
2023/07/31 09:34:20;;;;;;;22.83;15.50;;;;;;;16.74;100.00;100583.56;5052841;28;20120;-62
2023/07/31 09:36:50;;;;;;;22.02;15.48;;;;;;;16.83;100.00;100581.44;5052673;28;20036;-62
2023/07/31 09:39:17;;;;;;;21.42;15.32;;;;;;;16.84;100.00;100583.91;5052763;28;20462;-62
2023/07/31 09:41:56;;;;;;;21.10;14.90;;;;;;;16.86;100.00;100579.94;5052647;28;20445;-62
2023/07/31 09:44:37;;;;;;;22.38;15.80;;;;;;;16.89;100.00;100582.00;5052667;28;20021;-62
2023/07/31 09:47:02;;;;;;;21.65;15.07;;;;;;;16.91;100.00;100583.28;5052623;28;20476;-62
2023/07/31 09:49:29;;;;;;;21.95;15.38;;;;;;;16.99;100.00;100578.72;5052323;28;20073;-62
2023/07/31 09:51:54;;;;;;;23.70;14.88;;;;;;;17.10;100.00;100577.06;5052356;28;20021;-62
2023/07/31 09:54:19;;;;;;;23.20;14.55;;;;;;;17.19;100.00;100584.47;5052339;28;20021;-62
2023/07/31 09:56:49;;;;;;;22.05;15.18;;;;;;;17.22;100.00;100578.97;5050791;28;20362;-62
2023/07/31 09:59:19;;;;;;;22.98;15.02;;;;;;;17.18;100.00;100583.66;5051999;28;20021;-62
2023/07/31 10:01:46;;;;;;;21.88;15.15;;;;;;;17.23;100.00;100580.59;5052120;28;20047;-62
2023/07/31 10:04:13;;;;;;;20.67;14.20;;;;;;;17.21;100.00;100582.94;5051985;28;20100;-62
2023/07/31 10:06:40;;;;;;;20.83;14.55;;;;;;;17.28;100.00;100582.31;5052065;28;20124;-62
2023/07/31 10:09:07;;;;;;;22.08;14.40;;;;;;;17.34;100.00;100577.28;5052079;28;20056;-62
2023/07/31 10:11:43;;;;;;;22.10;14.85;;;;;;;17.43;100.00;100580.72;5051805;28;20037;-62
2023/07/31 10:14:10;;;;;;;21.42;14.52;;;;;;;17.46;100.00;100574.41;5051987;28;20493;-63
2023/07/31 10:16:38;;;;;;;21.98;14.23;;;;;;;17.48;100.00;100580.44;5051801;28;20033;-62
2023/07/31 10:19:04;;;;;;;21.70;14.30;;;;;;;17.52;100.00;100583.34;5051690;28;20039;-62
2023/07/31 10:21:31;;;;;;;21.27;14.45;;;;;;;17.55;100.00;100580.63;5051023;28;20052;-62
2023/07/31 10:23:57;;;;;;;21.65;14.25;;;;;;;17.57;100.00;100575.47;5051683;28;20052;-62
2023/07/31 10:26:23;;;;;;;21.80;15.05;;;;;;;17.71;100.00;100571.41;5051613;28;20040;-62
2023/07/31 10:28:50;;;;;;;21.40;13.43;;;;;;;17.81;100.00;100567.25;5051217;28;20037;-63
2023/07/31 10:31:16;;;;;;;20.48;13.77;;;;;;;17.94;100.00;100565.97;5051680;28;20055;-62
2023/07/31 10:33:42;;;;;;;21.67;14.50;;;;;;;17.98;100.00;100566.91;5051580;28;20025;-62
2023/07/31 10:36:18;;;;;;;21.63;13.85;;;;;;;17.98;100.00;100574.47;5051315;28;20032;-62
2023/07/31 10:38:44;;;;;;;19.75;13.73;;;;;;;17.99;100.00;100573.31;5051193;28;20496;-62
2023/07/31 10:41:10;;;;;;;20.08;13.27;;;;;;;18.02;100.00;100578.19;5051319;28;20033;-63
2023/07/31 10:43:37;;;;;;;21.05;14.07;;;;;;;18.09;100.00;100569.94;5051445;28;20033;-62
2023/07/31 10:46:11;;;;;;;21.02;14.15;;;;;;;18.21;100.00;100564.25;5051185;28;20103;-62
2023/07/31 10:48:41;;;;;;;18.58;12.88;;;;;;;18.17;100.00;100552.13;5049689;28;20036;-63
2023/07/31 10:51:11;;;;;;;19.40;13.48;;;;;;;18.23;100.00;100552.66;5049771;28;20074;-62
2023/07/31 10:53:38;;;;;;;19.10;12.93;;;;;;;18.17;100.00;100557.75;5051142;28;20036;-62
2023/07/31 10:56:08;;;;;;;19.65;12.90;;;;;;;18.07;100.00;100561.94;5051134;28;20021;-63
2023/07/31 10:58:35;;;;;;;19.35;12.73;;;;;;;18.04;100.00;100567.44;5050971;28;20102;-63